Hlavní strana
METAR-TAF:

METAR-TAF

Letiště :

Kuej-lin, Čína

zeměpisná šířka: 25-20N, zeměpisná délka: 110-18E, výška: 166 m

Aktuální stav počasí

Zpráva byla vytvořena před 22 minutami, v 05:00 UTC
Jižní vítr 10 kt
Teplota 31°C
Vlhkost vzduchu 71%
Tlak 1004 hPa
Viditelnost 10 km a více
Oblačno až skoro zataženo ve výšce 3600 ft
Zataženo ve výšce 5300 ft

METAR: ZGKL 200500Z 18005MPS 9999 BKN036 OVC053 31/25 Q1004 NOSIG

Čas: 13:22 (05:22 UTC)

Předpověď počasí

Zpráva byla vytvořena před 10 hodinami a 8 minutami, v 19:14 UTC
Předpověď platná od 20 v 00 UTC do 20 v 24 UTC
Jižní vítr 8 kt
Viditelnost 10 km a více
Polojasno ve výšce 3000 ft
Dočasný
od 20 v 02 UTC do 20 v 08 UTC
Viditelnost: 2500 m
Skoro jasno ve výšce 3000 ft, Cumulonimbus.
Oblačno až skoro zataženo ve výšce 4000 ft
dešťové přeháňky

TAF: ZGKL 191914Z 2000/2024 18004MPS 9999 SCT030 TX33/2008Z TN26/2021Z TEMPO 2002/2008 2500 SHRA FEW030CB BKN040

Stav a předpovědi počasí z více než 4 000 letišť (zprávy METAR a TAF).

Červené a žluté tečky na mapě představují dostupné meteorologické stanice.

Když kurzor umístíte na tečku, zobrazí se název stanice.

Pak kliknutím zobrazíte stav a předpověď počasí.

Chcete-li změnit mapu, kliknutím na zelené tlačítko se znaménkem +mapu přiblížíte, kliknutím na zelené tlačítko se znaménkem – mapu oddálíte a kliknutím na zelené šipky přejdete na sousední mapy.


METAR-TAF: